createdAt,value
2023-06-22T00:00:13.190Z,102041.41
2023-06-22T00:02:40.777Z,102043.06
2023-06-22T00:05:08.490Z,102044.59
2023-06-22T00:07:35.760Z,102042.03
2023-06-22T00:10:03.010Z,102044.72
2023-06-22T00:12:30.280Z,102042.88
2023-06-22T00:14:57.486Z,102047.41
2023-06-22T00:17:24.866Z,102050.44
2023-06-22T00:19:54.886Z,102047.63
2023-06-22T00:22:29.851Z,102048.47
2023-06-22T00:24:58.185Z,102041.38
2023-06-22T00:27:25.522Z,102051.41
2023-06-22T00:29:53.062Z,102050.69
2023-06-22T00:32:20.525Z,102047.16
2023-06-22T00:34:47.775Z,102045.88
2023-06-22T00:37:14.971Z,102047.16
2023-06-22T00:39:42.659Z,102044.06
2023-06-22T00:42:10.037Z,102044.75
2023-06-22T00:44:37.781Z,102046.59
2023-06-22T00:47:07.891Z,102040.50
2023-06-22T00:49:36.362Z,102042.22
2023-06-22T00:52:03.866Z,102044.75
2023-06-22T00:54:31.335Z,102040.22
2023-06-22T01:13:28.411Z,102023.81
2023-06-22T01:16:06.696Z,102036.56
2023-06-22T01:18:41.555Z,102038.28
2023-06-22T01:21:12.925Z,102033.44
2023-06-22T01:24:19.741Z,102038.66
2023-06-22T01:27:23.213Z,102034.50
2023-06-22T01:30:05.630Z,102031.53
2023-06-22T01:32:35.970Z,102032.69
2023-06-22T01:35:06.614Z,102035.41
2023-06-22T01:37:36.612Z,102030.38
2023-06-22T01:40:11.016Z,102034.41
2023-06-22T01:42:39.420Z,102025.75
2023-06-22T01:45:08.545Z,102024.66
2023-06-22T01:47:35.909Z,102011.78
2023-06-22T01:50:03.262Z,102018.00
2023-06-22T01:52:30.582Z,102011.06
2023-06-22T01:54:59.210Z,101999.47
2023-06-22T01:57:26.633Z,101997.06
2023-06-22T02:00:11.364Z,101995.81
2023-06-22T02:02:45.889Z,102010.63
2023-06-22T02:05:17.674Z,102014.25
2023-06-22T02:07:54.082Z,102007.47
2023-06-22T02:10:23.495Z,102012.69
2023-06-22T02:12:52.579Z,102011.38
2023-06-22T02:15:20.611Z,102016.56
2023-06-22T02:17:49.257Z,102019.94
2023-06-22T02:20:16.671Z,102014.31
2023-06-22T02:22:43.962Z,102014.38
2023-06-22T02:25:11.373Z,102009.75
2023-06-22T02:27:41.674Z,102005.41
2023-06-22T02:30:10.707Z,102019.47
2023-06-22T02:32:38.007Z,102017.41
2023-06-22T02:35:05.836Z,102028.72
2023-06-22T02:37:33.906Z,102023.84
2023-06-22T02:40:01.135Z,102022.75
2023-06-22T02:42:28.936Z,102026.28
2023-06-22T02:44:56.134Z,102021.91
2023-06-22T02:47:23.477Z,102017.91
2023-06-22T02:49:50.757Z,102013.25
2023-06-22T02:52:18.035Z,102022.88
2023-06-22T02:54:47.279Z,102016.25
2023-06-22T02:57:15.146Z,102024.56
2023-06-22T03:03:22.338Z,102027.53
2023-06-22T03:05:39.147Z,102024.00
2023-06-22T03:08:06.397Z,102017.22
2023-06-22T03:10:33.578Z,102023.16
2023-06-22T03:13:00.797Z,102033.94
2023-06-22T03:15:30.837Z,102030.91
2023-06-22T03:17:58.311Z,102033.59
2023-06-22T03:20:26.606Z,102033.59
2023-06-22T03:22:54.241Z,102029.09
2023-06-22T03:25:21.586Z,102035.88
2023-06-22T03:27:49.486Z,102019.47
2023-06-22T03:30:16.709Z,102029.94
2023-06-22T03:32:44.805Z,102030.91
2023-06-22T03:35:15.248Z,102028.94
2023-06-22T03:37:42.709Z,102035.16
2023-06-22T03:40:10.414Z,102030.19
2023-06-22T03:42:37.927Z,102043.22
2023-06-22T03:45:05.753Z,102045.63
2023-06-22T03:47:33.971Z,102039.69
2023-06-22T03:50:01.492Z,102044.91
2023-06-22T03:52:28.879Z,102048.84
2023-06-22T03:54:56.088Z,102057.31
2023-06-22T03:57:23.454Z,102055.22
2023-06-22T03:59:50.939Z,102057.06
2023-06-22T04:02:18.164Z,102053.38
2023-06-22T04:04:45.608Z,102056.22
2023-06-22T04:07:12.962Z,102055.25
2023-06-22T04:09:40.284Z,102054.53
2023-06-22T04:12:08.082Z,102070.78
2023-06-22T04:14:35.606Z,102061.88
2023-06-22T04:17:03.173Z,102061.00
2023-06-22T04:19:30.445Z,102066.28
2023-06-22T04:21:57.847Z,102064.84
2023-06-22T04:24:25.072Z,102063.69
2023-06-22T04:26:56.050Z,102062.19
2023-06-22T04:29:30.191Z,102063.59
2023-06-22T04:31:59.717Z,102065.44
2023-06-22T04:34:29.774Z,102059.81
2023-06-22T04:36:57.097Z,102057.97
2023-06-22T04:39:25.170Z,102059.06
2023-06-22T04:41:52.656Z,102063.47
2023-06-22T04:44:26.358Z,102065.59
2023-06-22T04:47:03.348Z,102057.16
2023-06-22T04:49:34.963Z,102057.00
2023-06-22T04:52:07.515Z,102062.81
2023-06-22T04:54:36.639Z,102063.63
2023-06-22T04:57:05.729Z,102058.84
2023-06-22T04:59:33.082Z,102054.88
2023-06-22T05:02:02.344Z,102059.56
2023-06-22T05:04:34.666Z,102063.41
2023-06-22T05:07:03.587Z,102068.19
2023-06-22T05:09:31.476Z,102062.25
2023-06-22T05:11:59.064Z,102057.75
2023-06-22T05:14:26.357Z,102042.91
2023-06-22T05:16:54.287Z,102041.22
2023-06-22T05:19:21.584Z,102050.44
2023-06-22T05:21:48.770Z,102047.88
2023-06-22T05:24:16.453Z,102044.63
2023-06-22T05:26:47.020Z,102043.09
2023-06-22T05:29:14.572Z,102049.59
2023-06-22T05:31:42.863Z,102044.09
2023-06-22T05:34:10.118Z,102048.31
2023-06-22T05:36:37.330Z,102040.81
2023-06-22T05:39:13.863Z,102046.91
2023-06-22T05:41:41.357Z,102047.88
2023-06-22T05:44:08.626Z,102043.06
2023-06-22T05:46:36.140Z,102040.09
2023-06-22T05:49:03.382Z,102038.41
2023-06-22T05:51:30.676Z,102041.94
2023-06-22T05:53:57.981Z,102039.09
2023-06-22T05:56:25.286Z,102040.09
2023-06-22T05:58:52.839Z,102039.66
2023-06-22T06:01:20.069Z,102035.84
2023-06-22T06:03:47.528Z,102030.63
2023-06-22T06:06:14.958Z,102027.22
2023-06-22T06:08:42.649Z,102034.44
2023-06-22T06:11:09.906Z,102034.28
2023-06-22T06:13:38.501Z,102037.97
2023-06-22T06:16:05.823Z,102041.66
2023-06-22T06:18:33.125Z,102038.69
2023-06-22T06:21:00.471Z,102042.22
2023-06-22T06:23:27.634Z,102038.38
2023-06-22T06:25:54.883Z,102040.50
2023-06-22T06:28:23.301Z,102033.38
2023-06-22T06:30:50.508Z,102034.66
2023-06-22T06:33:17.719Z,102037.91
2023-06-22T06:35:45.016Z,102029.97
2023-06-22T06:38:12.172Z,102032.78
2023-06-22T06:40:39.505Z,102022.41
2023-06-22T06:43:06.732Z,102022.69
2023-06-22T06:45:36.012Z,102018.56
2023-06-22T06:48:03.671Z,102018.81
2023-06-22T06:50:32.411Z,102024.47
2023-06-22T06:53:00.428Z,102023.50
2023-06-22T06:55:27.836Z,102023.06
2023-06-22T06:57:55.085Z,102027.13
2023-06-22T07:00:22.477Z,102025.00
2023-06-22T07:02:50.278Z,102025.38
2023-06-22T07:05:17.684Z,102036.13
2023-06-22T07:07:44.941Z,102031.28
2023-06-22T07:10:12.746Z,102034.06
2023-06-22T07:12:40.202Z,102023.97
2023-06-22T07:15:09.840Z,102024.97
2023-06-22T07:17:38.143Z,102029.78
2023-06-22T07:20:11.584Z,102037.78
2023-06-22T07:22:43.999Z,102032.38
2023-06-22T07:25:15.635Z,102030.13
2023-06-22T07:27:57.595Z,102025.38
2023-06-22T07:30:24.929Z,102022.88
2023-06-22T07:32:52.159Z,102018.91
2023-06-22T07:37:46.844Z,102024.38
2023-06-22T07:40:14.410Z,102022.22
2023-06-22T07:42:41.768Z,102018.19
2023-06-22T07:45:09.704Z,102017.91
2023-06-22T07:47:37.295Z,102021.97
2023-06-22T07:50:05.563Z,102028.03
2023-06-22T07:52:33.567Z,102014.09
2023-06-22T07:55:01.051Z,102006.22
2023-06-22T07:57:35.549Z,102001.34
2023-06-22T08:00:16.183Z,101999.38
2023-06-22T08:02:45.590Z,102002.97
2023-06-22T08:05:21.027Z,101999.63
2023-06-22T08:08:00.891Z,101992.56
2023-06-22T08:10:28.578Z,101989.06
2023-06-22T08:12:55.807Z,101993.13
2023-06-22T08:15:23.396Z,101993.53
2023-06-22T08:17:51.045Z,101982.91
2023-06-22T08:20:21.104Z,101984.50
2023-06-22T08:22:48.371Z,101976.94
2023-06-22T08:25:15.826Z,101978.69
2023-06-22T08:27:46.450Z,101975.50
2023-06-22T08:30:13.815Z,101973.47
2023-06-22T08:32:41.491Z,101977.06
2023-06-22T08:35:12.113Z,101983.69
2023-06-22T08:37:40.715Z,101980.47
2023-06-22T08:40:10.866Z,101980.88
2023-06-22T08:42:39.469Z,101971.56
2023-06-22T08:45:07.532Z,101977.16
2023-06-22T08:47:34.869Z,101974.63
2023-06-22T08:50:04.615Z,101970.91
2023-06-22T08:52:32.070Z,101958.63
2023-06-22T08:55:02.323Z,101962.16
2023-06-22T08:57:30.281Z,101955.56
2023-06-22T09:00:00.244Z,101956.38
2023-06-22T09:02:32.246Z,101956.56
2023-06-22T09:05:00.393Z,101966.22
2023-06-22T09:07:28.035Z,101961.84
2023-06-22T09:09:55.293Z,101952.38
2023-06-22T09:12:26.874Z,101949.66
2023-06-22T09:14:54.900Z,101945.97
2023-06-22T09:17:23.043Z,101936.97
2023-06-22T09:19:50.316Z,101948.44
2023-06-22T09:22:17.698Z,101944.38
2023-06-22T09:24:44.985Z,101946.75
2023-06-22T09:27:12.390Z,101944.38
2023-06-22T09:29:39.660Z,101945.72
2023-06-22T09:32:07.400Z,101936.97
2023-06-22T09:34:34.885Z,101926.81
2023-06-22T09:37:02.226Z,101923.28
2023-06-22T09:39:29.539Z,101920.59
2023-06-22T09:41:56.857Z,101918.06
2023-06-22T09:44:24.069Z,101917.84
2023-06-22T09:46:51.379Z,101901.78
2023-06-22T09:49:20.458Z,101911.03
2023-06-22T09:51:53.772Z,101909.19
2023-06-22T09:54:21.025Z,101907.47
2023-06-22T09:56:48.341Z,101913.25
2023-06-22T09:59:18.942Z,101911.38
2023-06-22T10:01:46.524Z,101904.41
2023-06-22T10:04:14.228Z,101896.97
2023-06-22T10:06:42.054Z,101887.81
2023-06-22T10:09:09.789Z,101888.97
2023-06-22T10:11:38.354Z,101880.50
2023-06-22T10:14:05.702Z,101890.50
2023-06-22T10:16:33.914Z,101878.78
2023-06-22T10:19:01.189Z,101871.47
2023-06-22T10:21:29.933Z,101874.28
2023-06-22T10:23:57.225Z,101867.34
2023-06-22T10:26:24.683Z,101865.16
2023-06-22T10:28:55.434Z,101870.09
2023-06-22T10:31:34.976Z,101868.56
2023-06-22T10:34:02.335Z,101861.78
2023-06-22T10:36:29.726Z,101868.34
2023-06-22T10:38:57.222Z,101859.91
2023-06-22T10:41:24.509Z,101865.47
2023-06-22T10:43:51.789Z,101862.22
2023-06-22T10:46:18.939Z,101858.19
2023-06-22T10:48:46.188Z,101855.88
2023-06-22T10:51:13.452Z,101852.66
2023-06-22T10:53:40.765Z,101859.94
2023-06-22T10:56:08.028Z,101852.97
2023-06-22T10:58:35.229Z,101848.88
2023-06-22T11:01:04.154Z,101848.81
2023-06-22T11:03:31.524Z,101854.16
2023-06-22T11:05:58.793Z,101859.50
2023-06-22T11:08:26.064Z,101861.94
2023-06-22T11:10:53.925Z,101861.88
2023-06-22T11:13:21.248Z,101865.31
2023-06-22T11:15:48.577Z,101860.06
2023-06-22T11:18:15.815Z,101856.16
2023-06-22T11:20:43.670Z,101853.44
2023-06-22T11:23:11.121Z,101855.59
2023-06-22T11:25:39.611Z,101835.94
2023-06-22T11:28:06.875Z,101844.53
2023-06-22T11:30:35.322Z,101834.97
2023-06-22T11:33:02.784Z,101834.31
2023-06-22T11:35:30.032Z,101827.84
2023-06-22T11:37:57.468Z,101825.91
2023-06-22T11:40:24.761Z,101819.66
2023-06-22T11:42:52.382Z,101817.31
2023-06-22T11:45:20.220Z,101815.44
2023-06-22T11:47:47.903Z,101806.78
2023-06-22T11:50:15.427Z,101797.13
2023-06-22T11:52:42.737Z,101801.16
2023-06-22T11:55:10.226Z,101802.75
2023-06-22T11:57:38.665Z,101802.47
2023-06-22T12:00:19.225Z,101794.97
2023-06-22T12:02:46.685Z,101798.34
2023-06-22T12:05:14.198Z,101794.00
2023-06-22T12:07:41.474Z,101792.53
2023-06-22T12:10:09.296Z,101797.78
2023-06-22T12:12:36.524Z,101784.50
2023-06-22T12:15:05.172Z,101786.38
2023-06-22T12:17:35.488Z,101778.63
2023-06-22T12:20:07.467Z,101783.72
2023-06-22T12:22:35.508Z,101777.25
2023-06-22T12:25:02.811Z,101772.19
2023-06-22T12:27:32.769Z,101777.50
2023-06-22T12:30:00.073Z,101768.88
2023-06-22T12:32:27.548Z,101775.06
2023-06-22T12:34:54.895Z,101779.72
2023-06-22T12:37:22.293Z,101760.50
2023-06-22T12:39:50.008Z,101766.59
2023-06-22T12:42:17.871Z,101760.31
2023-06-22T12:44:45.749Z,101756.94
2023-06-22T12:47:14.441Z,101749.13
2023-06-22T12:49:41.729Z,101739.44
2023-06-22T12:52:12.660Z,101726.84
2023-06-22T12:54:50.419Z,101720.97
2023-06-22T12:57:22.111Z,101723.59
2023-06-22T12:59:49.436Z,101719.25
2023-06-22T13:02:16.974Z,101716.06
2023-06-22T13:04:44.530Z,101719.63
2023-06-22T13:09:42.368Z,101712.13
2023-06-22T13:12:10.083Z,101704.03
2023-06-22T13:14:37.313Z,101705.53
2023-06-22T13:17:04.649Z,101697.59
2023-06-22T13:19:33.749Z,101697.59
2023-06-22T13:22:01.430Z,101700.94
2023-06-22T13:24:28.907Z,101699.97
2023-06-22T13:26:56.374Z,101704.19
2023-06-22T13:29:23.634Z,101694.81
2023-06-22T13:31:54.052Z,101704.06
2023-06-22T13:34:21.509Z,101705.50
2023-06-22T13:36:48.761Z,101709.81
2023-06-22T13:39:15.983Z,101703.50
2023-06-22T13:41:45.733Z,101706.59
2023-06-22T13:44:13.003Z,101704.63
2023-06-22T13:46:40.345Z,101705.66
2023-06-22T13:49:07.670Z,101702.50
2023-06-22T13:51:35.031Z,101695.94
2023-06-22T13:54:02.286Z,101698.47
2023-06-22T13:56:29.866Z,101698.09
2023-06-22T13:58:57.305Z,101691.63
2023-06-22T14:01:24.491Z,101691.16
2023-06-22T14:03:51.936Z,101690.91
2023-06-22T14:06:19.272Z,101687.16
2023-06-22T14:08:46.521Z,101682.78
2023-06-22T14:11:15.032Z,101682.47
2023-06-22T14:13:44.260Z,101671.16
2023-06-22T14:16:11.643Z,101666.97
2023-06-22T14:18:38.951Z,101655.47
2023-06-22T14:21:06.168Z,101659.34
2023-06-22T14:23:33.461Z,101652.75
2023-06-22T14:26:00.870Z,101656.69
2023-06-22T14:28:28.573Z,101649.09
2023-06-22T14:30:55.820Z,101650.97
2023-06-22T14:33:23.272Z,101651.34
2023-06-22T14:35:50.725Z,101647.63
2023-06-22T14:38:17.949Z,101643.22
2023-06-22T14:41:05.753Z,101645.50
2023-06-22T14:43:32.814Z,101653.72
2023-06-22T14:46:00.138Z,101648.50
2023-06-22T14:48:27.516Z,101641.75
2023-06-22T14:50:56.435Z,101631.75
2023-06-22T14:53:27.319Z,101629.72
2023-06-22T14:55:55.974Z,101630.72
2023-06-22T14:58:23.334Z,101625.66
2023-06-22T15:00:51.289Z,101634.56
2023-06-22T15:03:23.141Z,101632.03
2023-06-22T15:05:50.591Z,101623.84
2023-06-22T15:08:17.889Z,101626.72
2023-06-22T15:10:45.164Z,101617.94
2023-06-22T15:13:12.628Z,101623.72
2023-06-22T15:15:41.093Z,101614.09
2023-06-22T15:18:08.464Z,101613.59
2023-06-22T15:20:35.780Z,101610.81
2023-06-22T15:23:03.186Z,101609.19
2023-06-22T15:25:30.497Z,101599.97
2023-06-22T15:27:57.731Z,101592.41
2023-06-22T15:30:24.954Z,101586.50
2023-06-22T15:32:52.222Z,101587.59
2023-06-22T15:35:19.967Z,101581.44
2023-06-22T15:37:47.189Z,101576.94
2023-06-22T15:40:14.538Z,101571.25
2023-06-22T15:42:41.844Z,101570.78
2023-06-22T15:45:09.748Z,101570.59
2023-06-22T15:47:38.356Z,101571.63
2023-06-22T15:50:06.239Z,101570.44
2023-06-22T15:52:33.385Z,101568.13
2023-06-22T15:55:01.867Z,101564.06
2023-06-22T15:57:30.425Z,101575.94
2023-06-22T15:59:57.784Z,101577.53
2023-06-22T16:02:25.285Z,101573.50
2023-06-22T16:04:54.398Z,101577.88
2023-06-22T16:07:21.652Z,101579.75
2023-06-22T16:09:48.851Z,101573.31
2023-06-22T16:12:16.189Z,101560.59
2023-06-22T16:14:44.671Z,101565.84
2023-06-22T16:17:11.918Z,101553.16
2023-06-22T16:19:39.131Z,101544.00
2023-06-22T16:22:07.072Z,101549.41
2023-06-22T16:24:34.424Z,101558.75
2023-06-22T16:27:01.690Z,101559.41
2023-06-22T16:29:29.881Z,101564.28
2023-06-22T16:31:57.221Z,101563.25
2023-06-22T16:34:24.524Z,101566.03
2023-06-22T16:36:53.341Z,101557.25
2023-06-22T16:39:21.621Z,101549.50
2023-06-22T16:41:48.947Z,101530.91
2023-06-22T16:44:16.285Z,101525.56
2023-06-22T16:46:45.646Z,101507.53
2023-06-22T16:49:13.076Z,101506.03
2023-06-22T16:51:40.472Z,101491.50
2023-06-22T16:54:08.345Z,101477.66
2023-06-22T16:56:35.698Z,101460.94
2023-06-22T16:59:07.619Z,101455.16
2023-06-22T17:01:36.645Z,101461.31
2023-06-22T17:04:10.200Z,101467.63
2023-06-22T17:06:50.879Z,101481.53
2023-06-22T17:09:18.373Z,101490.53
2023-06-22T17:11:46.223Z,101478.22
2023-06-22T17:14:13.508Z,101475.03
2023-06-22T17:16:44.301Z,101483.69
2023-06-22T17:19:12.316Z,101497.50
2023-06-22T17:21:40.607Z,101504.75
2023-06-22T17:24:08.045Z,101510.72
2023-06-22T17:26:35.394Z,101512.91
2023-06-22T17:29:02.822Z,101513.47
2023-06-22T17:31:41.964Z,101519.38
2023-06-22T17:34:10.413Z,101504.91
2023-06-22T17:36:51.932Z,101500.84
2023-06-22T17:39:20.810Z,101487.00
2023-06-22T17:41:49.271Z,101477.75
2023-06-22T17:44:21.263Z,101473.84
2023-06-22T17:46:53.285Z,101472.84
2023-06-22T17:49:20.520Z,101461.69
2023-06-22T17:51:51.929Z,101456.13
2023-06-22T17:54:19.364Z,101467.28
2023-06-22T17:56:51.512Z,101467.28
2023-06-22T17:59:21.961Z,101463.75
2023-06-22T18:01:49.243Z,101468.47
2023-06-22T18:04:20.054Z,101467.63
2023-06-22T18:06:48.568Z,101470.34
2023-06-22T18:09:17.550Z,101463.25
2023-06-22T18:11:47.154Z,101459.41
2023-06-22T18:14:19.298Z,101444.06
2023-06-22T18:16:48.256Z,101440.47
2023-06-22T18:19:16.837Z,101440.00
2023-06-22T18:21:49.853Z,101440.00
2023-06-22T18:24:18.875Z,101440.50
2023-06-22T18:26:46.824Z,101442.00
2023-06-22T18:29:14.481Z,101440.69
2023-06-22T18:31:44.290Z,101438.81
2023-06-22T18:34:13.215Z,101437.78
2023-06-22T18:36:47.451Z,101435.78
2023-06-22T18:39:16.423Z,101439.84
2023-06-22T18:41:51.221Z,101439.50
2023-06-22T18:44:31.851Z,101447.47
2023-06-22T18:47:02.189Z,101447.81
2023-06-22T18:49:49.573Z,101459.28
2023-06-22T18:52:26.951Z,101474.84
2023-06-22T18:54:56.175Z,101487.09
2023-06-22T18:57:23.606Z,101498.06
2023-06-22T18:59:52.547Z,101493.84
2023-06-22T19:02:29.106Z,101506.84
2023-06-22T19:05:14.755Z,101519.13
2023-06-22T19:07:54.504Z,101531.63
2023-06-22T19:10:30.100Z,101525.88
2023-06-22T19:13:17.668Z,101519.50
2023-06-22T19:15:45.699Z,101515.66
2023-06-22T19:18:16.954Z,101523.38
2023-06-22T19:20:49.236Z,101526.25
2023-06-22T19:23:38.066Z,101525.03
2023-06-22T19:26:13.316Z,101520.84
2023-06-22T19:28:54.280Z,101519.16
2023-06-22T19:31:23.369Z,101520.53
2023-06-22T19:34:06.107Z,101517.47
2023-06-22T19:36:37.347Z,101508.53
2023-06-22T19:39:05.777Z,101510.41
2023-06-22T19:41:36.215Z,101508.03
2023-06-22T19:44:05.272Z,101500.78
2023-06-22T19:46:33.573Z,101500.13
2023-06-22T19:49:01.535Z,101499.94
2023-06-22T19:51:34.180Z,101502.63
2023-06-22T19:54:08.075Z,101515.09
2023-06-22T19:56:37.528Z,101508.88
2023-06-22T19:59:17.038Z,101512.25
2023-06-22T20:01:47.609Z,101512.41
2023-06-22T20:04:15.330Z,101511.56
2023-06-22T20:07:01.411Z,101503.66
2023-06-22T20:09:29.271Z,101504.47
2023-06-22T20:11:59.720Z,101507.66
2023-06-22T20:14:36.195Z,101502.97
2023-06-22T20:17:10.106Z,101506.91
2023-06-22T20:19:48.484Z,101506.75
2023-06-22T20:22:15.704Z,101486.38
2023-06-22T20:24:46.303Z,101500.50
2023-06-22T20:27:15.510Z,101498.81
2023-06-22T20:29:44.713Z,101509.25
2023-06-22T20:32:15.570Z,101492.38
2023-06-22T20:34:49.329Z,101502.47
2023-06-22T20:37:23.416Z,101505.28
2023-06-22T20:39:51.006Z,101507.09
2023-06-22T20:42:19.110Z,101493.94
2023-06-22T20:44:52.090Z,101491.25
2023-06-22T20:47:21.930Z,101493.13
2023-06-22T20:49:50.548Z,101483.50
2023-06-22T20:52:18.868Z,101493.91
2023-06-22T20:54:46.746Z,101490.84
2023-06-22T20:57:14.026Z,101488.81
2023-06-22T20:59:41.398Z,101494.88
2023-06-22T21:02:09.497Z,101486.25
2023-06-22T21:04:38.026Z,101485.91
2023-06-22T21:07:05.774Z,101485.59
2023-06-22T21:09:46.102Z,101476.44
2023-06-22T21:12:17.991Z,101483.31
2023-06-22T21:14:45.359Z,101484.78
2023-06-22T21:17:12.773Z,101489.41
2023-06-22T21:19:39.977Z,101491.75
2023-06-22T21:22:07.604Z,101498.44
2023-06-22T21:24:34.915Z,101505.75
2023-06-22T21:27:02.704Z,101517.47
2023-06-22T21:29:29.996Z,101518.06
2023-06-22T21:31:57.361Z,101522.97
2023-06-22T21:34:24.788Z,101511.19
2023-06-22T21:36:52.124Z,101508.66
2023-06-22T21:39:20.122Z,101507.00
2023-06-22T21:41:47.402Z,101502.31
2023-06-22T21:44:14.758Z,101500.84
2023-06-22T21:46:41.997Z,101497.84
2023-06-22T21:49:09.173Z,101487.09
2023-06-22T21:51:36.500Z,101493.25
2023-06-22T21:54:04.089Z,101491.00
2023-06-22T21:56:33.945Z,101482.13
2023-06-22T21:59:01.247Z,101479.28
2023-06-22T22:01:28.982Z,101495.53
2023-06-22T22:03:56.280Z,101491.59
2023-06-22T22:06:24.580Z,101482.72
2023-06-22T22:08:51.881Z,101472.81
2023-06-22T22:11:19.200Z,101464.75
2023-06-22T22:13:46.745Z,101467.00
2023-06-22T22:16:15.211Z,101468.22
2023-06-22T22:18:42.637Z,101478.69
2023-06-22T22:21:09.984Z,101496.63
2023-06-22T22:23:37.270Z,101498.63
2023-06-22T22:26:04.950Z,101505.00
2023-06-22T22:28:35.607Z,101498.81
2023-06-22T22:31:02.946Z,101500.13
2023-06-22T22:33:30.636Z,101495.13
2023-06-22T22:36:00.582Z,101510.84
2023-06-22T22:38:27.904Z,101519.00
2023-06-22T22:40:55.158Z,101514.59
2023-06-22T22:43:22.422Z,101522.06
2023-06-22T22:45:49.866Z,101522.50
2023-06-22T22:48:17.324Z,101526.03
2023-06-22T22:50:44.818Z,101528.56
2023-06-22T22:53:12.039Z,101522.69
2023-06-22T22:55:39.260Z,101528.06
2023-06-22T22:58:06.533Z,101525.53
2023-06-22T23:00:33.799Z,101530.03
2023-06-22T23:03:03.275Z,101541.22
2023-06-22T23:05:30.825Z,101547.16
2023-06-22T23:07:58.220Z,101550.28
2023-06-22T23:10:25.442Z,101555.50
2023-06-22T23:12:52.726Z,101541.53
2023-06-22T23:15:20.175Z,101528.81
2023-06-22T23:17:47.454Z,101525.88
2023-06-22T23:20:18.557Z,101529.84
2023-06-22T23:22:45.747Z,101527.16
2023-06-22T23:25:13.584Z,101519.66
2023-06-22T23:27:40.833Z,101524.88
2023-06-22T23:30:11.257Z,101524.31
2023-06-22T23:32:39.483Z,101530.38
2023-06-22T23:35:11.304Z,101524.31
2023-06-22T23:37:38.725Z,101519.66
2023-06-22T23:40:08.262Z,101526.19
2023-06-22T23:42:35.523Z,101511.38
2023-06-22T23:45:02.742Z,101520.81
2023-06-22T23:47:30.315Z,101517.47
2023-06-22T23:49:57.576Z,101521.94
2023-06-22T23:52:24.741Z,101524.09
2023-06-22T23:54:51.944Z,101517.63
2023-06-22T23:57:19.144Z,101523.41
2023-06-22T23:59:51.833Z,101521.44
